Latest Weather Observations for Derby

IDW60801

Issued at 9:02 am WST Tuesday 23 December 2014 (issued every 30 minutes, with the page automatically refreshed every 10 minutes)

About weather observations | Map of weather stations | Latest weather observations for WA | Other Formats
Station Details ID: 003032 Name: DERBY AERO Lat: -17.37 Lon: 123.66 Height: 6.2 m
Data from the previous 72 hours. | See also: Recent months at Derby
Date/Time
WST
Temp
°C
App
Temp
°C
Dew
Point
Rel
Hum
%
Delta-T
°C
Wind Press
QNH
hPa
Press
MSL
hPa
Rain
since 9 am
mm
Dir
 
Spd
km/h
Gust
km/h
Spd
kts
Gust
kts
23/09:00am 32.5 35.5 23.4 58 6.3 SSW 13 20 7 11 1008.8 1008.7 0.0
23/08:30am 31.9 34.5 24.0 63 5.5 SSW 17 22 9 12 1009.0 1008.9 0.0
23/08:00am 31.1 34.5 24.7 68 4.5 SSW 15 22 8 12 1008.9 1008.8 0.0
23/07:30am 30.0 33.7 25.1 75 3.4 SSW 15 20 8 11 1008.8 1008.7 0.0
23/07:00am 29.4 33.6 25.4 79 2.8 SSW 13 19 7 10 1008.8 1008.7 0.0
23/06:30am 28.6 33.3 25.6 84 2.1 SSW 11 15 6 8 1008.9 1008.8 0.0
23/06:00am 27.9 32.7 25.7 88 1.6 SSW 11 15 6 8 1008.5 1008.4 0.0
23/05:30am 27.6 32.3 25.6 89 1.4 SSW 11 15 6 8 1008.1 1008.0 0.0
23/05:00am 27.6 32.7 25.6 89 1.4 SSW 9 13 5 7 1007.8 1007.7 0.0
23/04:30am 27.8 33.4 25.8 89 1.4 SSW 7 11 4 6 1007.4 1007.3 0.0
23/04:00am 27.8 33.1 25.8 89 1.4 SW 9 11 5 6 1007.2 1007.1 0.0
23/03:30am 27.8 32.9 25.6 88 1.5 SW 9 11 5 6 1007.1 1007.0 0.0
23/03:00am 27.9 33.3 25.5 87 1.7 SW 7 9 4 5 1006.9 1006.8 0.0
23/02:30am 27.9 33.4 25.3 86 1.8 SW 6 7 3 4 1007.0 1006.9 0.0
23/02:00am 28.0 33.3 25.2 85 2.0 SW 7 9 4 5 1007.0 1006.9 0.0
23/01:30am 28.0 33.4 25.2 85 2.0 WSW 6 9 3 5 1006.8 1006.7 0.0
23/01:00am 28.0 33.4 25.4 86 1.8 SW 7 9 4 5 1007.0 1006.9 0.0
23/12:30am 28.2 33.5 25.2 84 2.1 SW 7 11 4 6 1006.9 1006.8 0.0
23/12:00am 28.6 33.5 25.2 82 2.4 SSW 9 11 5 6 1006.9 1006.8 0.0
 
Date/Time
WST
Temp
°C
App
Temp
°C
Dew
Point
Rel
Hum
%
Delta-T
°C
Wind Press
QNH
hPa
Press
MSL
hPa
Rain
since 9 am
mm
Dir
 
Spd
km/h
Gust
km/h
Spd
kts
Gust
kts
22/11:30pm 29.1 33.9 25.1 79 2.8 SW 9 13 5 7 1007.1 1007.0 0.0
22/11:00pm 29.3 33.8 24.6 76 3.3 WNW 9 13 5 7 1007.3 1007.2 0.0
22/10:30pm 29.8 33.8 25.1 76 3.3 WNW 13 17 7 9 1007.3 1007.2 0.0
22/10:00pm 30.1 34.7 26.0 78 2.9 NW 13 17 7 9 1007.3 1007.2 0.0
22/09:30pm 30.6 35.3 26.1 77 3.2 NW 13 19 7 10 1007.3 1007.2 0.0
22/09:00pm 30.7 35.7 26.0 76 3.4 NNW 11 15 6 8 1007.3 1007.2 0.0
22/08:30pm 30.9 34.5 25.0 71 4.2 NNW 15 19 8 10 1006.8 1006.7 0.0
22/08:00pm 30.9 33.8 24.5 68 4.5 NNW 17 20 9 11 1006.4 1006.3 0.0
22/07:30pm 31.1 33.4 24.5 68 4.6 NW 20 24 11 13 1006.1 1006.0 0.0
22/07:00pm 31.4 34.6 25.0 69 4.5 NW 17 20 9 11 1005.8 1005.7 0.0
22/06:30pm 31.7 35.9 24.8 67 4.9 NNW 11 15 6 8 1005.3 1005.2 0.0
22/06:00pm 32.0 35.9 24.8 65 5.1 NW 13 17 7 9 1004.9 1004.8 0.0
22/05:30pm 33.2 36.4 24.4 60 6.2 WNW 15 19 8 10 1004.9 1004.8 0.0
22/05:00pm 34.2 37.5 23.9 55 7.2 WNW 13 17 7 9 1004.6 1004.5 0.0
22/04:30pm 34.5 37.1 22.6 50 8.2 W 13 19 7 10 1004.3 1004.2 0.0
22/04:00pm 34.9 37.1 21.9 46 8.9 WNW 13 19 7 10 1004.5 1004.4 0.0
22/03:30pm 34.9 37.4 23.2 50 8.1 W 15 22 8 12 1004.6 1004.5 0.0
22/03:00pm 34.9 37.3 23.6 52 7.9 W 17 22 9 12 1005.1 1005.0 0.0
22/02:30pm 35.0 37.6 24.0 53 7.7 WSW 17 20 9 11 1005.3 1005.2 0.0
22/02:00pm 35.3 39.6 23.6 50 8.2 WSW 7 13 4 7 1005.6 1005.5 0.0
22/01:30pm 34.6 38.9 23.3 52 7.9 WNW 6 17 3 9 1005.9 1005.8 0.0
22/01:00pm 34.6 38.3 22.3 48 8.5 SW 6 11 3 6 1006.2 1006.1 0.0
22/12:30pm 33.6 37.0 23.3 55 7.1 SW 11 15 6 8 1006.7 1006.6 0.0
22/12:00pm 32.6 36.0 22.7 56 6.8 WNW 9 15 5 8 1007.1 1007.0 0.0
22/11:30am 32.5 36.6 23.2 58 6.4 NNW 7 15 4 8 1007.7 1007.6 0.0
22/11:00am 31.9 35.6 22.3 56 6.6 WSW 6 13 3 7 1008.4 1008.3 0.0
22/10:30am 31.5 35.2 23.3 61 5.7 SW 9 17 5 9 1008.8 1008.7 0.0
22/10:00am 30.8 32.8 22.9 62 5.4 S 17 22 9 12 1009.3 1009.2 0.0
22/09:30am 29.9 32.3 24.3 72 3.9 SSW 19 24 10 13 1009.7 1009.7 0.0
22/09:00am 29.4 31.8 24.3 74 3.6 S 19 22 10 12 1009.4 1009.4 0.4
22/08:30am 27.9 30.2 24.1 80 2.6 S 19 22 10 12 1009.5 1009.5 0.4
22/08:00am 27.3 30.4 24.2 83 2.1 SSE 15 19 8 10 1009.7 1009.7 0.4
22/07:30am 26.8 30.4 23.7 83 2.1 ESE 11 15 6 8 1009.1 1009.0 0.4
22/07:00am 26.6 30.8 24.1 86 1.7 ENE 9 13 5 7 1009.3 1009.2 0.4
22/06:30am 26.7 30.7 23.8 84 2.0 E 9 11 5 6 1009.1 1009.0 0.4
22/06:00am 26.6 30.7 23.9 85 1.9 E 9 11 5 6 1008.8 1008.7 0.4
22/05:30am 26.6 31.3 24.3 87 1.6 E 7 9 4 5 1008.4 1008.3 0.4
22/05:00am 26.3 30.9 24.2 88 1.5 SSE 7 11 4 6 1007.7 1007.6 0.4
22/04:30am 26.5 30.8 24.3 88 1.5 ENE 9 13 5 7 1007.1 1007.0 0.4
22/04:00am 26.2 32.1 24.1 88 1.4 CALM 0 0 0 0 1006.7 1006.6 0.4
22/03:30am 26.1 29.7 23.8 87 1.6 SSE 11 15 6 8 1006.4 1006.3 0.4
22/03:00am 26.2 29.4 23.7 86 1.7 SSE 13 17 7 9 1006.5 1006.4 0.4
22/02:30am 26.2 28.3 24.1 88 1.4 SE 20 30 11 16 1006.8 1006.7 0.4
22/02:00am 28.9 30.8 23.8 74 3.5 S 20 33 11 18 1006.8 1006.7 0.0
22/01:30am 28.7 32.1 24.7 79 2.8 SSW 15 20 8 11 1006.8 1006.7 0.0
22/01:00am 28.4 33.3 24.4 79 2.8 SSW 6 7 3 4 1006.5 1006.4 0.0
22/12:30am 28.1 33.6 25.3 85 2.0 S 6 9 3 5 1006.8 1006.7 0.0
22/12:00am 28.6 34.3 23.7 75 3.4 CALM 0 0 0 0 1006.5 1006.4 0.0
 
Date/Time
WST
Temp
°C
App
Temp
°C
Dew
Point
Rel
Hum
%
Delta-T
°C
Wind Press
QNH
hPa
Press
MSL
hPa
Rain
since 9 am
mm
Dir
 
Spd
km/h
Gust
km/h
Spd
kts
Gust
kts
21/11:30pm 28.6 34.6 24.2 77 3.1 CALM 0 0 0 0 1006.5 1006.4 0.0
21/11:00pm 28.5 34.1 24.3 78 2.9 SE 2 6 1 3 1006.9 1006.8 0.0
21/10:30pm 28.6 33.3 23.9 75 3.2 SE 6 7 3 4 1007.4 1007.3 0.0
21/10:00pm 29.3 34.4 24.0 73 3.7 ENE 4 7 2 4 1007.4 1007.3 0.0
21/09:30pm 29.2 34.0 24.1 74 3.5 N 6 9 3 5 1007.2 1007.1 0.0
21/09:00pm 29.4 33.8 24.5 75 3.4 N 9 11 5 6 1006.9 1006.8 0.0
21/08:30pm 29.6 34.5 24.7 75 3.4 N 7 9 4 5 1006.8 1006.7 0.0
21/08:00pm 29.6 33.9 24.2 73 3.8 N 9 13 5 7 1006.6 1006.5 0.0
21/07:30pm 30.0 34.1 23.2 67 4.7 NE 7 11 4 6 1006.0 1005.9 0.0
21/07:00pm 30.4 35.3 23.1 65 5.0 NNE 2 7 1 4 1005.9 1005.8 0.0
21/06:30pm 31.0 34.6 22.3 60 5.9 ENE 7 13 4 7 1005.6 1005.5 0.0
21/06:00pm 31.1 34.1 22.7 61 5.8 NE 11 17 6 9 1005.2 1005.1 0.0
21/05:30pm 32.1 33.7 22.8 58 6.4 E 19 32 10 17 1005.1 1005.0 0.0
21/05:19pm 32.2 32.1 22.9 58 6.4 E 28 35 15 19 1005.0 1004.9 0.0
21/05:00pm 35.7 40.0 21.9 44 9.5 WNW 2 9 1 5 1004.5 1004.4 0.0
21/04:30pm 35.6 38.5 21.8 44 9.4 WSW 9 17 5 9 1004.3 1004.2 0.0
21/04:00pm 35.3 37.0 21.6 45 9.4 WNW 15 19 8 10 1004.3 1004.2 0.0
21/03:30pm 35.2 38.3 23.5 50 8.2 W 13 19 7 10 1004.4 1004.3 0.0
21/03:00pm 34.8 37.9 23.5 52 7.9 W 13 20 7 11 1004.7 1004.6 0.0
21/02:30pm 34.8 38.2 24.1 53 7.5 WNW 13 19 7 10 1004.8 1004.7 0.0
21/02:00pm 35.3 39.0 24.6 54 7.6 WSW 13 19 7 10 1005.1 1005.0 0.0
21/01:30pm 34.5 38.2 23.2 51 7.8 WSW 9 15 5 8 1005.8 1005.7 0.0
21/01:00pm 34.2 37.4 22.3 50 8.2 WSW 9 17 5 9 1006.4 1006.3 0.0
21/12:30pm 33.8 37.3 22.9 53 7.5 SSW 9 19 5 10 1007.1 1007.0 0.0
21/12:00pm 33.4 35.7 22.8 53 7.3 SW 15 20 8 11 1007.8 1007.7 0.0
21/11:30am 32.9 36.3 24.1 60 6.2 S 13 20 7 11 1008.3 1008.2 0.0
21/11:00am 32.5 36.7 23.4 58 6.3 WSW 7 13 4 7 1008.6 1008.5 0.0
21/10:30am 32.0 36.3 24.3 63 5.4 SW 9 17 5 9 1009.1 1009.0 0.0
21/10:00am 31.4 35.0 23.8 64 5.3 SW 11 15 6 8 1009.3 1009.2 0.0
21/09:30am 30.7 34.4 24.6 70 4.3 SSW 13 17 7 9 1009.5 1009.5 0.0
21/09:00am 29.7 33.1 24.1 72 3.9 SSW 13 17 7 9 1009.5 1009.5 1.4
21/08:30am 28.8 33.5 25.6 83 2.3 SSE 11 15 6 8 1009.8 1009.8 1.4
21/08:00am 27.8 32.2 25.0 85 2.0 S 11 13 6 7 1009.7 1009.7 1.4
21/07:30am 27.3 32.2 25.3 89 1.4 S 9 13 5 7 1009.6 1009.6 1.4
21/07:00am 27.0 31.1 25.2 90 1.3 SSE 13 15 7 8 1009.4 1009.4 1.4
21/06:30am 26.9 31.5 25.3 91 1.1 S 11 15 6 8 1009.1 1009.0 1.4
21/06:00am 26.6 31.1 25.2 92 1.0 S 11 15 6 8 1008.7 1008.6 1.4
21/05:30am 26.6 31.2 25.4 93 0.8 S 11 15 6 8 1008.4 1008.3 1.4
21/05:00am 26.5 31.8 25.3 93 0.8 S 7 9 4 5 1007.9 1007.8 1.4
21/04:30am 26.5 32.6 25.1 92 1.0 SSW 2 6 1 3 1007.4 1007.3 1.4
21/04:00am 26.6 32.7 25.0 91 1.1 SSW 2 6 1 3 1007.1 1007.0 1.4
21/03:30am 26.5 31.8 24.9 91 1.1 SSW 6 9 3 5 1007.0 1006.9 1.4
21/03:00am 26.7 33.3 25.3 92 1.0 CALM 0 0 0 0 1006.8 1006.7 1.4
21/02:30am 26.6 32.9 24.8 90 1.3 CALM 0 6 0 3 1006.7 1006.6 1.4
21/02:00am 26.8 32.9 24.5 87 1.6 CALM 0 0 0 0 1006.7 1006.6 1.4
21/01:30am 26.7 31.6 24.4 87 1.6 NE 6 7 3 4 1006.7 1006.6 1.4
21/01:00am 26.8 31.6 24.1 85 1.9 NNE 6 7 3 4 1007.2 1007.1 1.4
21/12:30am 26.7 31.5 24.2 86 1.7 NE 6 9 3 5 1007.6 1007.5 1.4
21/12:00am 26.7 32.1 24.5 88 1.5 NE 4 6 2 3 1007.9 1007.8 1.4
 
Date/Time
WST
Temp
°C
App
Temp
°C
Dew
Point
Rel
Hum
%
Delta-T
°C
Wind Press
QNH
hPa
Press
MSL
hPa
Rain
since 9 am
mm
Dir
 
Spd
km/h
Gust
km/h
Spd
kts
Gust
kts
20/11:30pm 26.6 31.5 24.4 88 1.5 N 6 7 3 4 1008.3 1008.2 1.4
20/11:00pm 26.7 31.9 24.2 86 1.7 N 4 6 2 3 1008.7 1008.6 1.4
20/10:30pm 26.7 31.4 24.0 85 1.9 N 6 7 3 4 1009.0 1008.9 1.4
20/10:00pm 26.7 30.7 23.8 84 2.0 N 9 11 5 6 1009.1 1009.0 1.4
20/09:30pm 26.8 30.4 23.7 83 2.1 N 11 15 6 8 1009.1 1009.0 1.4
20/09:00pm 27.0 30.2 23.7 82 2.3 NNE 13 17 7 9 1008.8 1008.7 1.4
20/08:30pm 27.4 30.2 23.6 80 2.6 NNE 15 22 8 12 1008.1 1008.0 1.4
20/08:00pm 27.9 32.5 24.1 80 2.6 ENE 7 9 4 5 1007.3 1007.2 1.4
20/07:30pm 27.9 32.6 23.9 79 2.8 E 6 7 3 4 1006.8 1006.7 1.4
20/07:00pm 27.9 32.1 24.1 80 2.6 SE 9 13 5 7 1006.7 1006.6 1.4
20/06:30pm 27.8 31.3 24.2 81 2.5 SE 13 15 7 8 1006.4 1006.3 1.4
20/06:00pm 28.1 31.4 24.5 81 2.5 SSE 15 19 8 10 1006.1 1006.0 1.4
20/05:30pm 28.3 31.7 24.1 78 2.9 S 13 17 7 9 1006.1 1006.0 1.4
20/05:00pm 28.2 31.6 24.0 78 2.9 WSW 13 15 7 8 1006.2 1006.1 1.4
20/04:30pm 28.1 31.2 24.1 79 2.8 WSW 15 19 8 10 1006.5 1006.4 1.4
20/04:00pm 28.6 32.0 24.6 79 2.8 WSW 15 19 8 10 1006.6 1006.5 1.4
20/03:30pm 28.7 31.4 23.4 73 3.6 NW 15 20 8 11 1007.0 1006.9 1.4
20/03:00pm 28.2 29.5 22.7 72 3.7 NW 20 24 11 13 1007.6 1007.5 1.4
20/02:30pm 27.9 29.7 23.3 76 3.1 NNW 19 22 10 12 1007.9 1007.8 1.4
20/02:00pm 27.6 31.4 24.0 81 2.5 NNW 11 17 6 9 1008.0 1007.9 1.4
20/01:30pm 27.0 30.6 24.3 85 1.9 NNW 13 19 7 10 1008.4 1008.3 1.4
20/01:00pm 26.5 30.3 24.0 86 1.7 N 11 17 6 9 1009.0 1008.9 1.4
20/12:30pm 25.6 27.8 24.0 91 1.1 NNE 19 22 10 12 1009.0 1008.9 1.4
20/12:00pm 25.5 30.0 23.9 91 1.1 NNE 7 9 4 5 1009.5 1009.5 1.2
20/11:30am 25.3 29.0 23.9 92 1.0 E 11 15 6 8 1010.5 1010.5 0.4
20/11:00am 25.5 28.5 23.4 88 1.4 E 13 17 7 9 1010.4 1010.4 0.0
20/10:30am 25.1 26.5 23.5 91 1.1 NE 22 32 12 17 1010.9 1010.9 0.0
20/10:00am 26.6 25.7 23.1 81 2.4 E 33 46 18 25 1010.9 1010.9 0.0
20/09:50am 28.1 27.2 22.1 70 4.0 E 30 50 16 27 1011.0 1011.0 0.0
20/09:30am 30.2 30.6 23.1 65 4.9 SE 26 39 14 21 1010.5 1010.5 0.0

Other Formats:

Comma delimited format used in spreadsheet applications
http://www.bom.gov.au/fwo/IDW60801/IDW60801.95205.axf

JavaScript Object Notation format (JSON) in row-major order
http://www.bom.gov.au/fwo/IDW60801/IDW60801.95205.json